Terminal Aerodrome Forecast
Issued by NWS

Home | Current Version | Previous Version | Text Only | Print | Product List | Glossary On
Versions: 1 2 3 4 5 6 7 8 9 10 11 12 13 14 15 16 17
000
FTUS42 KTBW 020159 AAB
TAFPIE
TAF AMD
KPIE 020159Z 0202/0224 VRB10G18KT P6SM -RA VCTS BKN030CB
     FM020400 VRB03KT P6SM SCT025 SCT100 BKN250
     FM021500 25007KT P6SM VCTS SCT025CB SCT050 OVC090=

USA.gov is the U.S. government's official web portal to all federal, state and local government web resources and services.